createdAt,value
2017-10-07T00:00:17.472Z,74.4
2017-10-07T00:01:19.138Z,74.4
2017-10-07T00:02:20.788Z,74.6
2017-10-07T00:03:22.433Z,77.0
2017-10-07T00:04:24.078Z,76.4
2017-10-07T00:05:25.740Z,76.5
2017-10-07T00:06:27.389Z,76.2
2017-10-07T00:07:29.044Z,75.5
2017-10-07T00:08:30.700Z,74.6
2017-10-07T00:09:32.345Z,74.6
2017-10-07T00:10:33.988Z,75.5
2017-10-07T00:11:35.649Z,75.7
2017-10-07T00:12:37.308Z,74.8
2017-10-07T00:13:38.967Z,74.8
2017-10-07T00:14:40.611Z,74.9
2017-10-07T00:15:42.261Z,74.5
2017-10-07T00:16:43.930Z,74.4
2017-10-07T00:17:45.629Z,74.2
2017-10-07T00:18:47.290Z,74.4
2017-10-07T00:19:48.934Z,74.5
2017-10-07T00:20:50.592Z,73.4
2017-10-07T00:21:52.257Z,73.8
2017-10-07T00:22:53.911Z,73.3
2017-10-07T00:23:55.559Z,73.6
2017-10-07T00:24:57.241Z,73.5
2017-10-07T00:25:58.895Z,74.0
2017-10-07T00:27:00.569Z,73.4
2017-10-07T00:28:02.223Z,73.5
2017-10-07T00:29:03.934Z,72.9
2017-10-07T00:30:05.585Z,73.2
2017-10-07T00:31:07.244Z,72.5
2017-10-07T00:32:08.897Z,72.8
2017-10-07T00:33:10.558Z,72.5
2017-10-07T00:34:12.211Z,72.5
2017-10-07T00:35:13.864Z,72.8
2017-10-07T00:36:15.556Z,72.6
2017-10-07T00:37:17.205Z,72.4
2017-10-07T00:38:18.855Z,72.6
2017-10-07T00:39:20.519Z,72.9
2017-10-07T00:40:22.174Z,72.6
2017-10-07T00:41:23.829Z,72.5
2017-10-07T00:42:25.477Z,72.8
2017-10-07T00:43:27.128Z,72.5
2017-10-07T00:44:28.772Z,72.5
2017-10-07T00:45:30.430Z,72.5
2017-10-07T00:46:32.089Z,72.2
2017-10-07T00:47:33.737Z,72.0
2017-10-07T00:48:35.422Z,72.3
2017-10-07T00:49:37.080Z,71.9
2017-10-07T00:50:38.740Z,72.3
2017-10-07T00:51:40.411Z,72.2
2017-10-07T00:52:42.056Z,72.5
2017-10-07T00:53:43.712Z,72.7
2017-10-07T00:54:45.373Z,73.8
2017-10-07T00:55:47.020Z,72.8
2017-10-07T00:56:48.669Z,73.3
2017-10-07T00:57:50.318Z,73.2
2017-10-07T00:58:51.964Z,73.3
2017-10-07T00:59:53.616Z,74.0
2017-10-07T01:00:55.271Z,74.0
2017-10-07T01:01:56.918Z,73.9
2017-10-07T01:02:58.563Z,74.4
2017-10-07T01:04:00.209Z,74.1
2017-10-07T01:05:01.880Z,75.5
2017-10-07T01:06:03.529Z,75.5
2017-10-07T01:07:05.176Z,75.5
2017-10-07T01:08:06.834Z,75.2
2017-10-07T01:09:08.492Z,75.8
2017-10-07T01:10:10.142Z,75.4
2017-10-07T01:11:11.795Z,75.5
2017-10-07T01:12:13.544Z,75.1
2017-10-07T01:13:15.223Z,76.8
2017-10-07T01:14:16.916Z,76.2
2017-10-07T01:15:18.626Z,76.1
2017-10-07T01:16:20.288Z,76.3
2017-10-07T01:17:22.018Z,75.1
2017-10-07T01:18:23.670Z,74.9
2017-10-07T01:19:25.326Z,74.7
2017-10-07T01:20:26.983Z,73.6
2017-10-07T01:21:28.639Z,74.0
2017-10-07T01:22:30.295Z,74.2
2017-10-07T01:23:31.965Z,74.9
2017-10-07T01:24:33.615Z,74.9
2017-10-07T01:25:35.272Z,74.9
2017-10-07T01:26:36.922Z,75.2
2017-10-07T01:27:38.569Z,75.3
2017-10-07T01:28:40.307Z,75.5
2017-10-07T01:29:41.962Z,75.6
2017-10-07T01:30:43.619Z,75.3
2017-10-07T01:31:45.261Z,75.0
2017-10-07T01:32:46.946Z,79.0
2017-10-07T01:33:48.593Z,77.9
2017-10-07T01:34:50.303Z,77.5
2017-10-07T01:35:51.958Z,76.3
2017-10-07T01:36:53.606Z,76.2
2017-10-07T01:37:55.259Z,76.4
2017-10-07T01:38:56.914Z,77.5
2017-10-07T01:39:58.566Z,81.7
2017-10-07T01:41:00.217Z,80.6
2017-10-07T01:42:01.903Z,80.2
2017-10-07T01:43:03.562Z,79.7
2017-10-07T01:44:05.217Z,78.3
2017-10-07T01:45:06.865Z,79.6
2017-10-07T01:46:08.513Z,79.3
2017-10-07T01:47:10.171Z,79.0
2017-10-07T01:48:11.825Z,82.0
2017-10-07T01:49:13.480Z,80.8
2017-10-07T01:50:15.151Z,80.9
2017-10-07T01:51:16.809Z,81.3
2017-10-07T01:52:18.463Z,80.4
2017-10-07T01:53:20.129Z,79.7
2017-10-07T01:54:21.807Z,81.1
2017-10-07T01:55:23.501Z,80.4
2017-10-07T02:01:50.490Z,80.7
2017-10-07T02:02:52.139Z,80.9
2017-10-07T02:03:53.783Z,80.8
2017-10-07T02:04:55.449Z,80.2
2017-10-07T02:05:57.103Z,81.6
2017-10-07T02:06:58.758Z,79.9
2017-10-07T02:08:00.409Z,79.5
2017-10-07T02:09:02.064Z,78.9
2017-10-07T02:10:03.714Z,78.6
2017-10-07T02:11:05.368Z,79.3
2017-10-07T02:12:07.020Z,78.7
2017-10-07T02:13:08.840Z,84.0
2017-10-07T02:14:10.490Z,80.6
2017-10-07T02:15:12.151Z,80.9
2017-10-07T02:16:13.789Z,80.7
2017-10-07T02:17:15.468Z,80.4
2017-10-07T02:18:17.114Z,80.9
2017-10-07T02:19:18.770Z,80.7
2017-10-07T02:20:20.458Z,79.5
2017-10-07T02:21:22.139Z,79.1
2017-10-07T02:22:23.807Z,78.9
2017-10-07T02:23:25.464Z,79.2
2017-10-07T02:24:27.117Z,78.6
2017-10-07T02:25:28.760Z,78.6
2017-10-07T02:26:30.418Z,79.1
2017-10-07T02:27:32.082Z,78.4
2017-10-07T02:28:33.732Z,78.6
2017-10-07T02:29:35.427Z,78.8
2017-10-07T02:30:37.077Z,80.2
2017-10-07T02:31:38.723Z,80.6
2017-10-07T02:32:40.414Z,82.0
2017-10-07T02:33:42.072Z,81.6
2017-10-07T02:34:43.729Z,80.2
2017-10-07T02:35:45.433Z,79.9
2017-10-07T02:36:47.075Z,78.6
2017-10-07T02:37:48.733Z,78.6
2017-10-07T02:38:50.382Z,78.8
2017-10-07T02:39:52.053Z,78.2
2017-10-07T02:40:53.740Z,77.9
2017-10-07T02:41:55.405Z,77.5
2017-10-07T02:42:57.065Z,77.3
2017-10-07T02:43:58.719Z,76.2
2017-10-07T02:45:00.510Z,77.4
2017-10-07T02:46:02.161Z,77.6
2017-10-07T02:47:03.845Z,77.6
2017-10-07T02:48:05.496Z,77.2
2017-10-07T02:49:07.171Z,76.5
2017-10-07T02:50:08.813Z,76.1
2017-10-07T02:51:10.537Z,76.4
2017-10-07T02:52:12.189Z,77.4
2017-10-07T02:53:13.840Z,78.1
2017-10-07T02:54:15.518Z,77.6
2017-10-07T02:55:17.173Z,77.3
2017-10-07T02:56:18.824Z,77.4
2017-10-07T02:57:20.498Z,77.0
2017-10-07T02:58:22.150Z,77.0
2017-10-07T02:59:23.826Z,76.5
2017-10-07T03:00:25.485Z,76.6
2017-10-07T03:01:27.140Z,76.5
2017-10-07T03:02:28.792Z,78.0
2017-10-07T03:03:30.440Z,77.7
2017-10-07T03:04:32.102Z,77.9
2017-10-07T03:05:33.745Z,78.7
2017-10-07T03:06:35.393Z,78.8
2017-10-07T03:07:37.045Z,79.8
2017-10-07T03:08:38.701Z,80.3
2017-10-07T03:09:40.378Z,80.1
2017-10-07T03:10:42.031Z,79.8
2017-10-07T03:11:43.678Z,78.5
2017-10-07T03:12:45.357Z,80.5
2017-10-07T03:13:47.011Z,81.2
2017-10-07T03:14:48.672Z,81.1
2017-10-07T03:15:50.388Z,80.6
2017-10-07T03:16:52.041Z,84.1
2017-10-07T03:17:53.693Z,84.1
2017-10-07T03:18:55.353Z,84.9
2017-10-07T03:19:57.027Z,84.2
2017-10-07T03:20:58.678Z,83.9
2017-10-07T03:22:00.337Z,83.0
2017-10-07T03:23:02.000Z,83.0
2017-10-07T03:24:03.654Z,86.3
2017-10-07T03:25:05.321Z,86.6
2017-10-07T03:26:06.976Z,84.7
2017-10-07T03:27:08.638Z,84.6
2017-10-07T03:28:10.294Z,85.5
2017-10-07T03:29:11.944Z,83.9
2017-10-07T03:30:13.595Z,82.1
2017-10-07T03:31:15.261Z,82.7
2017-10-07T03:32:16.911Z,84.1
2017-10-07T03:33:18.567Z,86.4
2017-10-07T03:34:20.217Z,85.7
2017-10-07T03:35:21.877Z,84.1
2017-10-07T03:36:23.527Z,83.9
2017-10-07T03:37:25.175Z,83.3
2017-10-07T03:38:26.836Z,80.5
2017-10-07T03:39:28.489Z,82.7
2017-10-07T03:40:30.144Z,81.3
2017-10-07T03:41:31.796Z,80.8
2017-10-07T03:42:33.454Z,81.6
2017-10-07T03:43:35.141Z,81.9
2017-10-07T03:44:36.788Z,81.8
2017-10-07T03:45:38.458Z,82.3
2017-10-07T03:46:40.104Z,82.3
2017-10-07T03:47:42.251Z,82.6
2017-10-07T03:48:43.404Z,82.0
2017-10-07T03:49:45.083Z,82.4
2017-10-07T03:50:46.730Z,82.0
2017-10-07T03:51:48.376Z,80.6
2017-10-07T03:52:50.044Z,80.6
2017-10-07T03:53:51.702Z,80.7
2017-10-07T03:54:53.357Z,81.0
2017-10-07T03:55:55.039Z,82.8
2017-10-07T03:56:56.688Z,82.0
2017-10-07T03:57:58.377Z,83.7
2017-10-07T03:59:00.018Z,84.3
2017-10-07T04:00:01.931Z,84.1
2017-10-07T04:01:03.821Z,84.1
2017-10-07T04:02:05.577Z,82.2
2017-10-07T04:03:07.251Z,84.1
2017-10-07T04:04:08.912Z,84.8
2017-10-07T04:05:10.563Z,84.1
2017-10-07T04:06:12.218Z,84.5
2017-10-07T04:07:13.867Z,84.4
2017-10-07T04:08:15.532Z,83.4
2017-10-07T04:09:17.188Z,82.9
2017-10-07T04:10:18.866Z,82.2
2017-10-07T04:11:20.534Z,82.0
2017-10-07T04:12:22.193Z,83.9
2017-10-07T04:13:23.843Z,84.1
2017-10-07T04:14:25.496Z,83.8
2017-10-07T04:15:27.151Z,84.0
2017-10-07T04:16:28.799Z,83.9
2017-10-07T04:17:30.457Z,83.3
2017-10-07T04:18:32.106Z,82.8
2017-10-07T04:19:33.749Z,83.4
2017-10-07T04:20:35.416Z,84.0
2017-10-07T04:21:37.064Z,84.0
2017-10-07T04:22:38.757Z,83.6
2017-10-07T04:23:40.411Z,84.2
2017-10-07T04:24:42.074Z,84.6
2017-10-07T04:25:43.724Z,85.0
2017-10-07T04:26:45.376Z,84.1
2017-10-07T04:27:47.034Z,84.9
2017-10-07T04:28:48.698Z,84.5
2017-10-07T04:29:50.356Z,83.2
2017-10-07T04:30:52.005Z,82.9
2017-10-07T04:31:53.666Z,83.6
2017-10-07T04:32:55.320Z,82.3
2017-10-07T04:33:56.966Z,82.1
2017-10-07T04:34:58.620Z,83.4
2017-10-07T04:36:00.273Z,83.4
2017-10-07T04:37:01.930Z,82.8
2017-10-07T04:38:03.588Z,80.2
2017-10-07T04:39:05.240Z,80.8
2017-10-07T04:40:06.893Z,80.6
2017-10-07T04:41:08.551Z,81.1
2017-10-07T04:42:10.230Z,85.1
2017-10-07T04:43:11.921Z,85.6
2017-10-07T04:44:13.588Z,84.9
2017-10-07T04:45:15.258Z,84.1
2017-10-07T04:46:16.913Z,83.0
2017-10-07T04:47:18.566Z,82.1
2017-10-07T04:48:20.219Z,81.8
2017-10-07T04:49:21.857Z,82.0
2017-10-07T04:50:23.512Z,81.4
2017-10-07T04:51:25.155Z,82.5
2017-10-07T04:52:26.812Z,82.5
2017-10-07T04:53:28.510Z,83.5
2017-10-07T04:54:30.168Z,82.4
2017-10-07T04:55:31.856Z,82.4
2017-10-07T04:56:33.496Z,82.3
2017-10-07T04:57:35.158Z,82.8
2017-10-07T04:58:36.817Z,83.7
2017-10-07T04:59:38.475Z,82.8
2017-10-07T05:00:40.126Z,83.3
2017-10-07T05:01:41.771Z,83.5
2017-10-07T05:02:43.426Z,83.1
2017-10-07T05:03:45.105Z,83.8
2017-10-07T05:04:46.790Z,83.8
2017-10-07T05:05:48.442Z,84.5
2017-10-07T05:06:50.096Z,84.4
2017-10-07T05:07:51.750Z,84.7
2017-10-07T05:08:53.403Z,85.0
2017-10-07T05:09:55.076Z,84.1
2017-10-07T05:10:56.726Z,84.7
2017-10-07T05:11:58.375Z,84.0
2017-10-07T05:13:00.034Z,83.5
2017-10-07T05:14:01.687Z,83.6
2017-10-07T05:15:03.347Z,83.4
2017-10-07T05:16:05.002Z,83.8
2017-10-07T05:17:06.654Z,84.9
2017-10-07T05:18:08.304Z,84.7
2017-10-07T05:19:09.976Z,84.2
2017-10-07T05:20:11.702Z,84.1
2017-10-07T05:21:13.356Z,84.3
2017-10-07T05:22:15.048Z,85.2
2017-10-07T05:23:16.699Z,85.5
2017-10-07T05:24:18.354Z,85.3
2017-10-07T05:25:20.010Z,86.5
2017-10-07T05:26:21.676Z,85.2
2017-10-07T05:27:23.330Z,84.3
2017-10-07T05:28:25.003Z,85.5
2017-10-07T05:29:26.673Z,84.7
2017-10-07T05:30:28.328Z,85.1
2017-10-07T05:31:29.979Z,85.2
2017-10-07T05:32:31.631Z,85.9
2017-10-07T05:33:33.281Z,85.9
2017-10-07T05:34:34.939Z,85.5
2017-10-07T05:35:36.591Z,85.3
2017-10-07T05:36:38.240Z,85.9
2017-10-07T05:37:39.906Z,86.1
2017-10-07T05:38:41.556Z,85.1
2017-10-07T05:39:43.212Z,85.5
2017-10-07T05:40:45.000Z,85.3
2017-10-07T05:41:46.664Z,85.4
2017-10-07T05:42:48.309Z,84.9
2017-10-07T05:43:49.966Z,86.0
2017-10-07T05:44:51.624Z,87.3
2017-10-07T05:45:53.301Z,86.1
2017-10-07T05:46:54.960Z,86.1
2017-10-07T05:47:56.676Z,85.1
2017-10-07T05:48:58.341Z,86.0
2017-10-07T05:50:00.165Z,88.3
2017-10-07T05:51:01.996Z,87.0
2017-10-07T05:52:03.651Z,87.3
2017-10-07T05:53:05.323Z,87.8
2017-10-07T05:54:06.980Z,86.2
2017-10-07T05:55:08.695Z,87.7
2017-10-07T06:01:24.906Z,87.9
2017-10-07T06:02:26.567Z,87.7
2017-10-07T06:03:28.240Z,87.3
2017-10-07T06:04:29.956Z,87.5
2017-10-07T06:05:31.612Z,87.0
2017-10-07T06:06:33.271Z,89.3
2017-10-07T06:07:34.929Z,88.8
2017-10-07T06:08:36.581Z,91.2
2017-10-07T06:09:38.281Z,89.7
2017-10-07T06:10:39.951Z,88.6
2017-10-07T06:11:41.619Z,88.6
2017-10-07T06:12:43.293Z,89.1
2017-10-07T06:13:45.014Z,89.5
2017-10-07T06:14:46.717Z,89.8
2017-10-07T06:15:48.369Z,92.4
2017-10-07T06:16:50.047Z,92.5
2017-10-07T06:17:51.701Z,93.1
2017-10-07T06:18:53.356Z,91.6
2017-10-07T06:19:55.016Z,90.7
2017-10-07T06:20:56.670Z,89.8
2017-10-07T06:21:58.330Z,90.0
2017-10-07T06:23:00.030Z,91.8
2017-10-07T06:24:01.708Z,91.9
2017-10-07T06:25:03.367Z,92.3
2017-10-07T06:26:05.017Z,92.3
2017-10-07T06:27:06.671Z,93.2
2017-10-07T06:28:10.220Z,93.8
2017-10-07T06:29:11.686Z,94.8
2017-10-07T06:30:13.344Z,94.0
2017-10-07T06:31:15.109Z,91.6
2017-10-07T06:32:17.052Z,92.1
2017-10-07T06:33:18.711Z,90.5
2017-10-07T06:34:20.377Z,92.7
2017-10-07T06:35:22.034Z,92.3
2017-10-07T06:36:23.880Z,92.4
2017-10-07T06:37:25.682Z,93.8
2017-10-07T06:38:27.341Z,93.4
2017-10-07T06:39:28.993Z,93.8
2017-10-07T06:40:30.649Z,92.8
2017-10-07T06:41:32.313Z,92.7
2017-10-07T06:42:34.098Z,92.9
2017-10-07T06:43:35.764Z,93.5
2017-10-07T06:44:37.424Z,93.2
2017-10-07T06:45:39.078Z,92.8
2017-10-07T06:46:40.731Z,93.8
2017-10-07T06:47:42.389Z,96.0
2017-10-07T06:48:44.045Z,96.8
2017-10-07T06:49:45.709Z,98.4
2017-10-07T06:50:47.368Z,97.6
2017-10-07T06:51:49.036Z,100.0
2017-10-07T06:52:50.694Z,99.5
2017-10-07T06:53:52.348Z,99.2
2017-10-07T06:54:54.002Z,99.2
2017-10-07T06:55:55.667Z,100.0
2017-10-07T06:56:57.324Z,99.9
2017-10-07T06:57:58.989Z,100.0
2017-10-07T06:59:00.656Z,99.2
2017-10-07T07:00:02.320Z,99.4
2017-10-07T07:01:03.992Z,99.9
2017-10-07T07:02:05.634Z,99.8
2017-10-07T07:03:07.299Z,100.0
2017-10-07T07:04:08.977Z,100.0
2017-10-07T07:05:10.630Z,100.0
2017-10-07T07:06:12.288Z,100.0
2017-10-07T07:07:13.948Z,100.0
2017-10-07T07:08:15.636Z,100.0
2017-10-07T07:09:17.296Z,100.0
2017-10-07T07:10:18.952Z,100.0
2017-10-07T07:11:20.611Z,100.0
2017-10-07T07:12:22.319Z,100.0
2017-10-07T07:13:30.256Z,100.0
2017-10-07T07:14:31.935Z,100.0
2017-10-07T07:15:33.594Z,100.0
2017-10-07T07:16:35.380Z,100.0
2017-10-07T07:17:37.153Z,100.0
2017-10-07T07:18:38.806Z,100.0
2017-10-07T07:19:40.472Z,100.0
2017-10-07T07:20:42.146Z,100.0
2017-10-07T07:21:43.798Z,100.0
2017-10-07T07:22:45.499Z,100.0
2017-10-07T07:23:47.153Z,100.0
2017-10-07T07:24:48.812Z,100.0
2017-10-07T07:25:50.478Z,100.0
2017-10-07T07:26:52.140Z,100.0
2017-10-07T07:27:53.798Z,100.0
2017-10-07T07:28:55.473Z,100.0
2017-10-07T07:29:57.127Z,100.0
2017-10-07T07:30:58.805Z,100.0
2017-10-07T07:32:00.466Z,100.0
2017-10-07T07:33:02.123Z,100.0
2017-10-07T07:34:03.788Z,100.0
2017-10-07T07:35:05.443Z,100.0
2017-10-07T07:36:07.115Z,100.0
2017-10-07T07:37:08.772Z,100.0
2017-10-07T07:38:10.429Z,100.0
2017-10-07T07:39:12.746Z,100.0
2017-10-07T07:40:14.417Z,100.0
2017-10-07T07:41:16.081Z,100.0
2017-10-07T07:42:17.777Z,100.0
2017-10-07T07:43:19.467Z,100.0
2017-10-07T07:44:21.131Z,100.0
2017-10-07T07:45:22.840Z,100.0
2017-10-07T07:46:24.506Z,100.0
2017-10-07T07:47:26.168Z,100.0
2017-10-07T07:48:27.855Z,100.0
2017-10-07T07:49:29.516Z,100.0
2017-10-07T07:50:31.178Z,100.0
2017-10-07T07:51:32.835Z,100.0
2017-10-07T07:52:34.511Z,100.0
2017-10-07T07:53:36.173Z,100.0
2017-10-07T07:54:37.843Z,100.0
2017-10-07T07:55:39.505Z,100.0
2017-10-07T07:56:41.167Z,100.0
2017-10-07T07:57:42.833Z,100.0
2017-10-07T07:58:44.529Z,100.0
2017-10-07T07:59:46.182Z,100.0
2017-10-07T08:00:47.842Z,100.0
2017-10-07T08:01:49.520Z,100.0
2017-10-07T08:02:51.178Z,100.0
2017-10-07T08:03:52.865Z,100.0
2017-10-07T08:04:54.510Z,100.0
2017-10-07T08:05:56.179Z,100.0
2017-10-07T08:06:57.840Z,100.0
2017-10-07T08:07:59.507Z,100.0
2017-10-07T08:09:01.170Z,100.0
2017-10-07T08:10:02.838Z,100.0
2017-10-07T08:11:04.513Z,100.0
2017-10-07T08:12:06.175Z,100.0
2017-10-07T08:13:07.833Z,100.0
2017-10-07T08:14:09.512Z,100.0
2017-10-07T08:15:11.173Z,100.0
2017-10-07T08:16:12.839Z,100.0
2017-10-07T08:17:14.703Z,100.0
2017-10-07T08:18:16.472Z,100.0
2017-10-07T08:19:18.155Z,100.0
2017-10-07T08:20:19.822Z,100.0
2017-10-07T08:21:21.489Z,100.0
2017-10-07T08:22:23.149Z,100.0
2017-10-07T08:23:25.261Z,100.0
2017-10-07T08:24:26.907Z,100.0
2017-10-07T08:25:28.565Z,100.0
2017-10-07T08:26:30.228Z,100.0
2017-10-07T08:27:31.886Z,100.0
2017-10-07T08:28:33.543Z,100.0
2017-10-07T08:29:35.219Z,100.0
2017-10-07T08:30:36.904Z,100.0
2017-10-07T08:31:38.590Z,100.0
2017-10-07T08:32:40.275Z,100.0
2017-10-07T08:33:41.948Z,100.0
2017-10-07T08:34:43.610Z,100.0
2017-10-07T08:35:45.271Z,100.0
2017-10-07T08:36:46.931Z,100.0
2017-10-07T08:37:48.603Z,100.0
2017-10-07T08:38:50.261Z,100.0
2017-10-07T08:39:51.917Z,100.0
2017-10-07T08:40:53.571Z,100.0
2017-10-07T08:41:55.236Z,100.0
2017-10-07T08:42:56.911Z,100.0
2017-10-07T08:43:58.576Z,100.0
2017-10-07T08:45:00.241Z,100.0
2017-10-07T08:46:01.964Z,100.0
2017-10-07T08:47:03.838Z,100.0
2017-10-07T08:48:05.494Z,100.0
2017-10-07T08:49:07.155Z,100.0
2017-10-07T08:50:13.323Z,100.0
2017-10-07T08:51:15.159Z,100.0
2017-10-07T08:52:17.553Z,100.0
2017-10-07T08:53:19.322Z,100.0
2017-10-07T08:54:20.988Z,100.0
2017-10-07T08:55:22.708Z,100.0
2017-10-07T08:56:24.371Z,100.0
2017-10-07T08:57:26.098Z,100.0
2017-10-07T08:58:28.182Z,100.0
2017-10-07T08:59:29.846Z,100.0
2017-10-07T09:00:31.505Z,100.0
2017-10-07T09:01:33.176Z,100.0
2017-10-07T09:02:34.832Z,100.0
2017-10-07T09:03:36.492Z,100.0
2017-10-07T09:04:38.148Z,100.0
2017-10-07T09:05:39.803Z,100.0
2017-10-07T09:06:41.513Z,100.0
2017-10-07T09:07:43.165Z,100.0
2017-10-07T09:08:44.824Z,100.0
2017-10-07T09:09:46.507Z,100.0
2017-10-07T09:10:48.165Z,100.0
2017-10-07T09:11:49.832Z,100.0
2017-10-07T09:12:51.542Z,100.0
2017-10-07T09:13:53.209Z,100.0
2017-10-07T09:14:54.868Z,100.0
2017-10-07T09:15:56.573Z,100.0
2017-10-07T09:16:58.234Z,100.0
2017-10-07T09:17:59.923Z,100.0
2017-10-07T09:19:01.581Z,100.0
2017-10-07T09:20:03.250Z,100.0
2017-10-07T09:21:04.905Z,100.0
2017-10-07T09:22:06.562Z,100.0
2017-10-07T09:23:08.223Z,100.0
2017-10-07T09:24:09.903Z,100.0
2017-10-07T09:25:11.572Z,100.0
2017-10-07T09:26:13.245Z,100.0
2017-10-07T09:27:14.927Z,100.0
2017-10-07T09:28:16.596Z,100.0
2017-10-07T09:29:18.264Z,100.0
2017-10-07T09:30:19.924Z,100.0
2017-10-07T09:31:21.585Z,100.0
2017-10-07T09:32:23.239Z,100.0
2017-10-07T09:33:24.940Z,100.0
2017-10-07T09:34:26.601Z,100.0
2017-10-07T09:35:28.290Z,100.0
2017-10-07T09:36:29.948Z,100.0
2017-10-07T09:37:31.633Z,100.0
2017-10-07T09:38:33.309Z,100.0
2017-10-07T09:39:34.973Z,100.0
2017-10-07T09:40:36.632Z,100.0
2017-10-07T09:41:38.306Z,100.0
2017-10-07T09:42:39.974Z,100.0
2017-10-07T09:43:41.644Z,100.0
2017-10-07T09:44:43.318Z,100.0
2017-10-07T09:45:44.972Z,100.0
2017-10-07T09:46:46.637Z,100.0
2017-10-07T09:47:48.301Z,100.0
2017-10-07T09:48:49.994Z,100.0
2017-10-07T09:49:51.657Z,100.0
2017-10-07T09:50:53.321Z,100.0
2017-10-07T09:51:55.146Z,100.0
2017-10-07T09:52:56.822Z,100.0
2017-10-07T09:53:58.493Z,100.0
2017-10-07T09:55:00.159Z,100.0
2017-10-07T10:01:07.389Z,100.0
2017-10-07T10:02:09.051Z,100.0
2017-10-07T10:03:10.713Z,100.0
2017-10-07T10:04:12.370Z,100.0
2017-10-07T10:05:14.031Z,100.0
2017-10-07T10:06:15.733Z,100.0
2017-10-07T10:07:17.411Z,100.0
2017-10-07T10:09:28.857Z,100.0
2017-10-07T10:10:30.813Z,100.0
2017-10-07T10:11:35.725Z,100.0
2017-10-07T10:12:37.382Z,100.0
2017-10-07T10:13:39.077Z,100.0
2017-10-07T10:14:41.028Z,100.0
2017-10-07T10:15:42.690Z,100.0
2017-10-07T10:16:44.649Z,100.0
2017-10-07T10:17:46.306Z,100.0
2017-10-07T10:18:48.203Z,100.0
2017-10-07T10:19:49.863Z,100.0
2017-10-07T10:20:52.833Z,100.0
2017-10-07T10:21:54.523Z,100.0
2017-10-07T10:22:56.228Z,100.0
2017-10-07T10:23:58.089Z,100.0
2017-10-07T10:24:59.749Z,100.0
2017-10-07T10:26:01.419Z,100.0
2017-10-07T10:27:03.080Z,100.0
2017-10-07T10:28:04.852Z,100.0
2017-10-07T10:29:06.528Z,100.0
2017-10-07T10:30:08.165Z,100.0
2017-10-07T10:31:09.829Z,100.0
2017-10-07T10:32:11.513Z,100.0
2017-10-07T10:33:13.704Z,100.0
2017-10-07T10:34:15.390Z,100.0
2017-10-07T10:35:17.138Z,100.0
2017-10-07T10:36:18.962Z,100.0
2017-10-07T10:37:20.642Z,100.0
2017-10-07T10:38:22.305Z,100.0
2017-10-07T10:39:24.153Z,100.0
2017-10-07T10:40:25.828Z,100.0
2017-10-07T10:41:27.491Z,100.0
2017-10-07T10:42:30.258Z,100.0
2017-10-07T10:43:32.020Z,100.0
2017-10-07T10:44:33.674Z,100.0
2017-10-07T10:45:35.340Z,100.0
2017-10-07T10:46:37.022Z,100.0
2017-10-07T10:47:42.667Z,100.0
2017-10-07T10:48:43.734Z,100.0
2017-10-07T10:49:45.409Z,100.0
2017-10-07T10:50:47.172Z,100.0
2017-10-07T10:51:48.838Z,100.0
2017-10-07T10:52:50.748Z,100.0
2017-10-07T10:53:53.521Z,100.0
2017-10-07T10:54:55.458Z,100.0
2017-10-07T10:55:57.269Z,100.0
2017-10-07T10:56:58.933Z,100.0
2017-10-07T10:58:00.605Z,100.0
2017-10-07T10:59:02.274Z,100.0
2017-10-07T11:00:03.939Z,100.0
2017-10-07T11:01:05.599Z,100.0
2017-10-07T11:02:07.850Z,100.0
2017-10-07T11:03:09.686Z,100.0
2017-10-07T11:04:11.191Z,100.0
2017-10-07T11:05:13.287Z,100.0
2017-10-07T11:06:15.165Z,100.0
2017-10-07T11:07:16.799Z,100.0
2017-10-07T11:08:18.465Z,100.0
2017-10-07T11:09:20.145Z,100.0
2017-10-07T11:10:21.838Z,100.0
2017-10-07T11:11:24.109Z,100.0
2017-10-07T11:12:25.777Z,100.0
2017-10-07T11:13:27.649Z,100.0
2017-10-07T11:14:29.351Z,100.0
2017-10-07T11:15:31.238Z,100.0
2017-10-07T11:16:32.989Z,100.0
2017-10-07T11:17:34.651Z,100.0
2017-10-07T11:18:37.066Z,100.0
2017-10-07T11:19:38.745Z,100.0
2017-10-07T11:20:41.701Z,100.0
2017-10-07T11:21:43.343Z,100.0
2017-10-07T11:22:45.072Z,100.0
2017-10-07T11:23:46.895Z,100.0
2017-10-07T11:24:48.570Z,100.0
2017-10-07T11:25:50.605Z,100.0
2017-10-07T11:26:52.268Z,100.0
2017-10-07T11:27:53.938Z,100.0
2017-10-07T11:28:55.594Z,100.0
2017-10-07T11:29:57.261Z,100.0
2017-10-07T11:30:58.942Z,100.0
2017-10-07T11:32:00.659Z,100.0
2017-10-07T11:33:02.366Z,100.0
2017-10-07T11:34:04.375Z,100.0
2017-10-07T11:35:06.039Z,100.0
2017-10-07T11:36:07.696Z,100.0
2017-10-07T11:37:09.369Z,100.0
2017-10-07T11:38:11.025Z,100.0
2017-10-07T11:39:12.706Z,100.0
2017-10-07T11:40:14.358Z,100.0
2017-10-07T11:41:16.498Z,100.0
2017-10-07T11:42:18.177Z,100.0
2017-10-07T11:43:22.141Z,100.0
2017-10-07T11:44:23.189Z,100.0
2017-10-07T11:45:25.245Z,100.0
2017-10-07T11:46:26.905Z,100.0
2017-10-07T11:47:28.570Z,100.0
2017-10-07T11:48:30.232Z,100.0
2017-10-07T11:49:31.936Z,100.0
2017-10-07T11:50:33.598Z,100.0
2017-10-07T11:51:35.278Z,100.0
2017-10-07T11:52:36.943Z,100.0
2017-10-07T11:53:38.687Z,100.0
2017-10-07T11:54:40.350Z,100.0
2017-10-07T11:55:42.372Z,100.0
2017-10-07T11:56:44.523Z,100.0
2017-10-07T11:57:46.640Z,100.0
2017-10-07T11:58:48.280Z,100.0
2017-10-07T11:59:49.956Z,100.0
2017-10-07T12:00:51.649Z,100.0
2017-10-07T12:01:53.319Z,100.0
2017-10-07T12:02:54.976Z,100.0
2017-10-07T12:03:57.231Z,100.0
2017-10-07T12:04:59.250Z,100.0
2017-10-07T12:06:12.216Z,100.0
2017-10-07T12:07:14.882Z,100.0
2017-10-07T12:08:18.158Z,100.0
2017-10-07T12:09:19.958Z,100.0
2017-10-07T12:10:22.084Z,100.0
2017-10-07T12:11:24.503Z,100.0
2017-10-07T12:12:26.419Z,100.0
2017-10-07T12:13:28.078Z,100.0
2017-10-07T12:14:29.884Z,100.0
2017-10-07T12:15:31.545Z,100.0
2017-10-07T12:16:33.221Z,100.0
2017-10-07T12:17:34.882Z,100.0
2017-10-07T12:18:36.726Z,100.0
2017-10-07T12:19:38.571Z,100.0
2017-10-07T12:20:40.424Z,100.0
2017-10-07T12:21:42.089Z,100.0
2017-10-07T12:22:44.162Z,100.0
2017-10-07T12:23:45.829Z,100.0
2017-10-07T12:24:47.505Z,100.0
2017-10-07T12:25:49.312Z,100.0
2017-10-07T12:26:50.981Z,100.0
2017-10-07T12:27:52.646Z,100.0
2017-10-07T12:28:54.353Z,100.0
2017-10-07T12:29:56.017Z,100.0
2017-10-07T12:30:57.673Z,100.0
2017-10-07T12:31:59.347Z,100.0
2017-10-07T12:33:01.059Z,100.0
2017-10-07T12:34:02.789Z,100.0
2017-10-07T12:35:04.454Z,100.0
2017-10-07T12:36:06.123Z,100.0
2017-10-07T12:37:07.799Z,100.0
2017-10-07T12:38:09.456Z,100.0
2017-10-07T12:39:11.141Z,100.0
2017-10-07T12:40:12.790Z,100.0
2017-10-07T12:41:14.449Z,100.0
2017-10-07T12:42:16.112Z,100.0
2017-10-07T12:43:17.780Z,100.0
2017-10-07T12:44:19.445Z,100.0
2017-10-07T12:45:21.106Z,100.0
2017-10-07T12:46:22.773Z,100.0
2017-10-07T12:47:24.432Z,100.0
2017-10-07T12:48:26.141Z,100.0
2017-10-07T12:49:27.808Z,100.0
2017-10-07T12:50:29.484Z,100.0
2017-10-07T12:51:31.151Z,100.0
2017-10-07T12:52:32.817Z,100.0
2017-10-07T12:53:34.482Z,100.0
2017-10-07T12:54:36.147Z,100.0
2017-10-07T12:55:37.830Z,100.0
2017-10-07T12:56:39.497Z,100.0
2017-10-07T12:57:41.648Z,100.0
2017-10-07T12:58:43.337Z,100.0
2017-10-07T12:59:44.997Z,100.0
2017-10-07T13:00:46.683Z,100.0
2017-10-07T13:01:48.372Z,100.0
2017-10-07T13:02:50.037Z,100.0
2017-10-07T13:03:51.707Z,100.0
2017-10-07T13:04:53.364Z,100.0
2017-10-07T13:05:55.022Z,100.0
2017-10-07T13:06:56.690Z,100.0
2017-10-07T13:07:58.417Z,100.0
2017-10-07T13:09:00.097Z,100.0
2017-10-07T13:10:01.770Z,100.0
2017-10-07T13:11:03.428Z,100.0
2017-10-07T13:12:05.092Z,100.0
2017-10-07T13:13:06.758Z,100.0
2017-10-07T13:14:08.426Z,100.0
2017-10-07T13:15:10.098Z,100.0
2017-10-07T13:16:11.752Z,100.0
2017-10-07T13:17:13.517Z,100.0
2017-10-07T13:18:15.202Z,100.0
2017-10-07T13:19:16.867Z,100.0
2017-10-07T13:20:18.528Z,100.0
2017-10-07T13:21:20.188Z,100.0
2017-10-07T13:22:21.847Z,100.0
2017-10-07T13:23:23.504Z,100.0
2017-10-07T13:24:25.160Z,100.0
2017-10-07T13:25:26.818Z,100.0
2017-10-07T13:26:28.477Z,100.0
2017-10-07T13:27:30.134Z,100.0
2017-10-07T13:28:31.791Z,100.0
2017-10-07T13:29:33.447Z,100.0
2017-10-07T13:30:35.803Z,100.0
2017-10-07T13:31:37.610Z,100.0
2017-10-07T13:32:39.313Z,100.0
2017-10-07T13:33:40.989Z,100.0
2017-10-07T13:34:42.640Z,100.0
2017-10-07T13:35:44.291Z,100.0
2017-10-07T13:36:45.955Z,100.0
2017-10-07T13:37:47.614Z,100.0
2017-10-07T13:38:50.083Z,100.0
2017-10-07T13:39:51.745Z,100.0
2017-10-07T13:40:53.407Z,100.0
2017-10-07T13:41:55.081Z,100.0
2017-10-07T13:42:56.736Z,100.0
2017-10-07T13:43:58.395Z,100.0
2017-10-07T13:45:00.051Z,100.0